Time;durP1;ratioP1;P1;durP2;ratioP2;P2;SDS_P1;SDS_P2;PMS_P1;PMS_P2;Temp;Humidity;BMP_temperature;BMP_pressure;BME280_temperature;BME280_humidity;BME280_pressure;Samples;Min_cycle;Max_cycle;Signal;HPM_P1;HPM_P2
2023/03/02 06:05:53;;;;;;;;;;;;;;;19.36;29.47;101743.96;94306;1313;1054501;-81
2023/03/02 06:08:20;;;;;;;;;;;;;;;19.39;29.49;101749.17;103807;1309;59429;-82
2023/03/02 06:10:46;;;;;;;;;;;;;;;19.43;29.42;101745.95;103666;1308;60371;-83
2023/03/02 06:13:11;;;;;;;;;;;;;;;19.47;29.44;101744.67;103787;1308;60535;-84
2023/03/02 06:15:39;;;;;;;;;;;;;;;19.51;29.33;101739.45;103551;1309;59288;-83
2023/03/02 06:18:04;;;;;;;;;;;;;;;19.58;29.42;101748.98;103726;1309;60501;-81
2023/03/02 06:20:30;;;;;;;;;;;;;;;19.64;29.24;101747.59;103718;1309;60941;-83
2023/03/02 06:22:55;;;;;;;;;;;;;;;19.69;29.29;101745.89;103965;1308;59156;-82
2023/03/02 06:25:21;;;;;;;;;;;;;;;19.76;29.14;101746.83;103859;1309;60619;-83
2023/03/02 06:27:50;;;;;;;;;;;;;;;19.81;29.28;101748.03;103697;1308;73431;-82
2023/03/02 06:30:16;;;;;;;;;;;;;;;19.86;29.09;101751.17;103850;1307;75236;-82
2023/03/02 06:32:42;;;;;;;;;;;;;;;19.90;29.20;101747.89;103877;1310;60853;-82
2023/03/02 06:35:07;;;;;;;;;;;;;;;19.94;29.29;101753.05;103695;1309;59409;-82
2023/03/02 06:37:33;;;;;;;;;;;;;;;19.98;29.28;101753.07;103898;1309;59413;-83
2023/03/02 06:39:58;;;;;;;;;;;;;;;20.02;29.26;101750.88;103822;1309;60520;-83
2023/03/02 06:42:28;;;;;;;;;;;;;;;20.08;29.31;101750.75;103692;1309;60519;-82
2023/03/02 06:44:54;;;;;;;;;;;;;;;20.13;29.28;101745.66;103764;1308;61236;-81
2023/03/02 06:47:20;;;;;;;;;;;;;;;20.17;29.26;101743.69;103645;1312;60463;-83
2023/03/02 06:49:46;;;;;;;;;;;;;;;20.21;29.18;101749.36;103501;1308;58812;-81
2023/03/02 06:52:13;;;;;;;;;;;;;;;20.25;29.13;101752.91;103658;1309;60578;-81
2023/03/02 06:54:38;;;;;;;;;;;;;;;20.28;29.18;101746.86;104321;1309;58861;-83
2023/03/02 06:57:04;;;;;;;;;;;;;;;20.22;29.13;101741.11;104185;1308;59323;-82
2023/03/02 06:59:29;;;;;;;;;;;;;;;20.11;29.35;101741.30;103704;1309;60468;-82
2023/03/02 07:01:55;;;;;;;;;;;;;;;19.93;29.53;101737.73;99749;1308;5517986;-82
2023/03/02 07:04:20;;;;;;;;;;;;;;;19.83;29.55;101738.44;103732;1311;60362;-81
2023/03/02 07:06:46;;;;;;;;;;;;;;;19.75;29.73;101744.14;103589;1308;60353;-84
2023/03/02 07:09:12;;;;;;;;;;;;;;;19.80;29.68;101737.54;103530;1308;60408;-81
2023/03/02 07:11:39;;;;;;;;;;;;;;;19.86;29.72;101741.67;103667;1308;58890;-82
2023/03/02 07:14:04;;;;;;;;;;;;;;;19.92;29.76;101741.20;103678;1308;61888;-82
2023/03/02 07:16:30;;;;;;;;;;;;;;;20.00;29.86;101742.59;103673;1308;60605;-82
2023/03/02 07:18:55;;;;;;;;;;;;;;;20.05;29.75;101740.87;103781;1308;60552;-82
2023/03/02 07:21:21;;;;;;;;;;;;;;;20.09;29.75;101739.43;103657;1309;60571;-81
2023/03/02 07:23:46;;;;;;;;;;;;;;;20.13;29.76;101743.51;103605;1308;60639;-81
2023/03/02 07:26:11;;;;;;;;;;;;;;;20.18;29.71;101742.53;103685;1314;61125;-82
2023/03/02 07:28:40;;;;;;;;;;;;;;;20.23;29.70;101746.20;103534;1314;60526;-83
2023/03/02 07:31:07;;;;;;;;;;;;;;;20.27;29.86;101746.17;103682;1313;60327;-83
2023/03/02 07:33:33;;;;;;;;;;;;;;;20.32;29.84;101748.27;103720;1308;60359;-83
2023/03/02 07:35:59;;;;;;;;;;;;;;;20.37;29.94;101751.56;103702;1308;59375;-83
2023/03/02 07:38:24;;;;;;;;;;;;;;;20.41;30.00;101750.98;103688;1308;60463;-83
2023/03/02 07:40:50;;;;;;;;;;;;;;;20.45;30.16;101745.21;103598;1308;60610;-83
2023/03/02 07:43:16;;;;;;;;;;;;;;;20.49;30.16;101750.02;103520;1311;59224;-82
2023/03/02 07:45:41;;;;;;;;;;;;;;;20.52;30.23;101750.36;103621;1308;60597;-82
2023/03/02 07:48:07;;;;;;;;;;;;;;;20.56;30.24;101749.64;103638;1313;73375;-82
2023/03/02 07:50:33;;;;;;;;;;;;;;;20.59;30.40;101751.60;103682;1308;60532;-83
2023/03/02 07:52:58;;;;;;;;;;;;;;;20.63;30.47;101748.76;103687;1309;60489;-84
2023/03/02 07:55:25;;;;;;;;;;;;;;;20.58;30.48;101746.11;103482;1308;60567;-85
2023/03/02 07:57:52;;;;;;;;;;;;;;;20.33;30.17;101747.84;103710;1309;59327;-83
2023/03/02 08:00:18;;;;;;;;;;;;;;;19.66;30.03;101744.42;103542;1309;62108;-81
2023/03/02 08:02:43;;;;;;;;;;;;;;;19.35;30.28;101746.53;103702;1308;58921;-84
2023/03/02 08:05:09;;;;;;;;;;;;;;;19.14;30.35;101740.94;103710;1308;60523;-84
2023/03/02 08:07:35;;;;;;;;;;;;;;;19.10;30.60;101740.21;103472;1309;60594;-84
2023/03/02 08:10:00;;;;;;;;;;;;;;;19.20;30.61;101739.74;103670;1313;59342;-83
2023/03/02 08:12:26;;;;;;;;;;;;;;;19.18;30.41;101736.09;103530;1308;60539;-82
2023/03/02 08:14:52;;;;;;;;;;;;;;;19.06;30.66;101738.61;103817;1308;59621;-82
2023/03/02 08:17:17;;;;;;;;;;;;;;;19.15;30.82;101737.84;103541;1309;59243;-82
2023/03/02 08:19:43;;;;;;;;;;;;;;;19.30;30.89;101741.59;103639;1308;59231;-82
2023/03/02 08:22:09;;;;;;;;;;;;;;;19.42;30.81;101736.34;103711;1308;60637;-83
2023/03/02 08:24:35;;;;;;;;;;;;;;;19.56;30.87;101738.54;103697;1313;60431;-82
2023/03/02 08:27:01;;;;;;;;;;;;;;;19.68;30.88;101743.31;103448;1308;60516;-84
2023/03/02 08:29:28;;;;;;;;;;;;;;;19.78;31.02;101748.13;103570;1308;61158;-82
2023/03/02 08:31:53;;;;;;;;;;;;;;;19.88;30.98;101750.68;103668;1309;60589;-82
2023/03/02 08:34:19;;;;;;;;;;;;;;;19.97;30.83;101754.89;103642;1314;59324;-82
2023/03/02 08:36:45;;;;;;;;;;;;;;;20.05;30.79;101756.09;103542;1309;60626;-82
2023/03/02 08:39:12;;;;;;;;;;;;;;;20.11;30.91;101753.45;103654;1311;60772;-82
2023/03/02 08:41:37;;;;;;;;;;;;;;;20.16;30.76;101748.90;103539;1314;60360;-82
2023/03/02 08:44:03;;;;;;;;;;;;;;;20.21;30.73;101754.36;103730;1308;61309;-82
2023/03/02 08:46:30;;;;;;;;;;;;;;;20.26;30.74;101756.41;103732;1309;74953;-82
2023/03/02 08:48:55;;;;;;;;;;;;;;;20.31;30.86;101753.86;103618;1308;60539;-83
2023/03/02 08:51:22;;;;;;;;;;;;;;;20.34;30.83;101754.20;103469;1311;60615;-82
2023/03/02 08:53:49;;;;;;;;;;;;;;;20.37;30.77;101751.36;103717;1308;60637;-82
2023/03/02 08:56:15;;;;;;;;;;;;;;;20.39;30.99;101752.85;103555;1308;59426;-81
2023/03/02 08:58:41;;;;;;;;;;;;;;;20.43;30.80;101754.27;103513;1309;60631;-83
2023/03/02 09:01:11;;;;;;;;;;;;;;;20.45;30.74;101755.05;103457;1308;60712;-83
2023/03/02 09:03:37;;;;;;;;;;;;;;;20.49;30.79;101753.62;103669;1308;72681;-82
2023/03/02 09:06:02;;;;;;;;;;;;;;;19.95;29.79;101759.23;103556;1310;61338;-83
2023/03/02 09:08:28;;;;;;;;;;;;;;;19.31;30.27;101761.89;103562;1309;60491;-83
2023/03/02 09:10:54;;;;;;;;;;;;;;;19.29;30.73;101759.50;103362;1309;59342;-84
2023/03/02 09:13:19;;;;;;;;;;;;;;;19.38;30.88;101763.52;103682;1309;59300;-83
2023/03/02 09:15:45;;;;;;;;;;;;;;;19.40;30.99;101756.64;103639;1308;73433;-84
2023/03/02 09:18:10;;;;;;;;;;;;;;;19.47;31.02;101759.13;103741;1309;60478;-83
2023/03/02 09:20:35;;;;;;;;;;;;;;;19.59;31.02;101748.39;103803;1308;60712;-83
2023/03/02 09:23:02;;;;;;;;;;;;;;;19.69;31.00;101751.08;103540;1308;60619;-82
2023/03/02 09:25:27;;;;;;;;;;;;;;;19.79;30.96;101748.65;103645;1313;59824;-83
2023/03/02 09:27:53;;;;;;;;;;;;;;;19.88;31.03;101745.13;103779;1308;60543;-83
2023/03/02 09:30:20;;;;;;;;;;;;;;;19.98;31.04;101754.48;103509;1309;74873;-83
2023/03/02 09:32:47;;;;;;;;;;;;;;;20.07;31.11;101751.17;103691;1308;60510;-82
2023/03/02 09:35:18;;;;;;;;;;;;;;;20.15;31.10;101751.29;103696;1309;60477;-82
2023/03/02 09:37:46;;;;;;;;;;;;;;;20.22;31.16;101748.95;103539;1311;73609;-82
2023/03/02 09:40:17;;;;;;;;;;;;;;;20.29;31.03;101747.35;103696;1309;64064;-82
2023/03/02 09:43:02;;;;;;;;;;;;;;;20.34;31.02;101749.20;103700;1309;60376;-83
2023/03/02 09:45:30;;;;;;;;;;;;;;;20.39;31.33;101746.61;103711;1309;61310;-83
2023/03/02 09:48:34;;;;;;;;;;;;;;;20.44;31.30;101745.61;103677;1309;72612;-82
2023/03/02 09:51:19;;;;;;;;;;;;;;;20.50;31.26;101745.53;103068;1314;73869;-83
2023/03/02 09:53:45;;;;;;;;;;;;;;;20.53;31.39;101732.66;103128;1313;60499;-84
2023/03/02 09:56:19;;;;;;;;;;;;;;;20.55;31.42;101730.37;103056;1314;59437;-83
2023/03/02 09:58:49;;;;;;;;;;;;;;;20.56;31.33;101734.06;103093;1314;73558;-83
2023/03/02 10:01:15;;;;;;;;;;;;;;;20.47;31.22;101731.68;103700;1314;74163;-84
2023/03/02 10:03:45;;;;;;;;;;;;;;;20.38;31.35;101724.33;103714;1314;60249;-83
2023/03/02 10:06:10;;;;;;;;;;;;;;;20.31;31.32;101733.13;103368;1314;61043;-83
2023/03/02 10:08:36;;;;;;;;;;;;;;;20.21;31.43;101729.14;103131;1314;59429;-84
2023/03/02 10:11:22;;;;;;;;;;;;;;;20.20;31.74;101726.00;103001;1317;60703;-84
2023/03/02 10:13:53;;;;;;;;;;;;;;;19.97;31.28;101726.11;102288;1320;60641;-83
2023/03/02 10:16:39;;;;;;;;;;;;;;;19.78;31.50;101722.58;102684;1320;61717;-84
2023/03/02 10:19:04;;;;;;;;;;;;;;;19.76;31.58;101718.41;102385;1326;73806;-82
2023/03/02 10:21:37;;;;;;;;;;;;;;;19.79;31.67;101721.11;102486;1320;59336;-83
2023/03/02 10:24:02;;;;;;;;;;;;;;;19.84;31.73;101716.94;103010;1323;61064;-82
2023/03/02 10:26:43;;;;;;;;;;;;;;;19.89;31.62;101711.67;102625;1321;59442;-83
2023/03/02 10:29:30;;;;;;;;;;;;;;;19.95;31.68;101708.20;102540;1323;72359;-83
2023/03/02 10:32:00;;;;;;;;;;;;;;;20.01;31.66;101711.47;102516;1320;74749;-82
2023/03/02 10:34:27;;;;;;;;;;;;;;;20.08;31.80;101707.70;102590;1324;60437;-83
2023/03/02 10:36:52;;;;;;;;;;;;;;;20.15;31.81;101704.42;102505;1320;60589;-83
2023/03/02 10:39:18;;;;;;;;;;;;;;;20.19;31.85;101699.59;102551;1320;60562;-82
2023/03/02 10:41:44;;;;;;;;;;;;;;;20.24;31.91;101695.40;102545;1320;60548;-81
2023/03/02 10:44:12;;;;;;;;;;;;;;;20.30;31.94;101687.95;102595;1320;58786;-82
2023/03/02 10:46:41;;;;;;;;;;;;;;;20.34;31.94;101689.70;102553;1323;60492;-83
2023/03/02 10:49:21;;;;;;;;;;;;;;;20.38;31.92;101692.14;102489;1320;72461;-83
2023/03/02 10:51:53;;;;;;;;;;;;;;;20.41;31.95;101689.45;102757;1314;74951;-83
2023/03/02 10:54:20;;;;;;;;;;;;;;;20.45;32.00;101694.61;102916;1314;61547;-84
2023/03/02 10:56:50;;;;;;;;;;;;;;;20.47;31.93;101688.06;103342;1308;61099;-84
2023/03/02 10:59:35;;;;;;;;;;;;;;;20.49;31.86;101686.72;103512;1309;72474;-85
2023/03/02 11:02:01;;;;;;;;;;;;;;;20.48;32.01;101687.30;103688;1313;73764;-84
2023/03/02 11:04:27;;;;;;;;;;;;;;;20.48;32.05;101684.62;103620;1308;59156;-85
2023/03/02 11:06:53;;;;;;;;;;;;;;;20.36;31.88;101683.84;103393;1308;60379;-83
2023/03/02 11:09:18;;;;;;;;;;;;;;;20.02;31.54;101678.53;103745;1309;59320;-84
2023/03/02 11:11:48;;;;;;;;;;;;;;;19.78;31.34;101675.98;103731;1309;61224;-84
2023/03/02 11:14:15;;;;;;;;;;;;;;;19.59;31.56;101671.95;103683;1310;60174;-83
2023/03/02 11:16:41;;;;;;;;;;;;;;;19.50;31.64;101667.59;103614;1309;60441;-84
2023/03/02 11:19:14;;;;;;;;;;;;;;;19.42;31.57;101665.11;103685;1309;71400;-83
2023/03/02 11:21:44;;;;;;;;;;;;;;;19.29;31.47;101663.45;103776;1308;74599;-82
2023/03/02 11:24:14;;;;;;;;;;;;;;;19.32;31.51;101655.80;103812;1309;60552;-83
2023/03/02 11:26:43;;;;;;;;;;;;;;;19.40;31.64;101653.65;103551;1312;60521;-83
2023/03/02 11:29:14;;;;;;;;;;;;;;;19.50;31.74;101648.86;103512;1311;73582;-82
2023/03/02 11:31:39;;;;;;;;;;;;;;;19.48;31.35;101644.45;103448;1311;73150;-82
2023/03/02 11:34:12;;;;;;;;;;;;;;;19.29;31.23;101643.09;103455;1312;60606;-82
2023/03/02 11:36:47;;;;;;;;;;;;;;;19.09;31.04;101636.42;103300;1311;61329;-82
2023/03/02 11:39:17;;;;;;;;;;;;;;;19.02;31.17;101636.23;103424;1312;72756;-82
2023/03/02 11:41:42;;;;;;;;;;;;;;;18.96;30.94;101631.02;103217;1317;73615;-82
2023/03/02 11:44:17;;;;;;;;;;;;;;;18.69;30.91;101637.09;103336;1314;58755;-82
2023/03/02 11:46:44;;;;;;;;;;;;;;;18.66;30.96;101640.07;103327;1311;61037;-82
2023/03/02 11:49:14;;;;;;;;;;;;;;;18.66;31.03;101636.01;103305;1311;73722;-82
2023/03/02 11:51:41;;;;;;;;;;;;;;;18.68;30.94;101627.68;103343;1312;73590;-82
2023/03/02 11:54:12;;;;;;;;;;;;;;;18.63;30.79;101618.64;103378;1311;60619;-81
2023/03/02 11:56:38;;;;;;;;;;;;;;;18.61;30.87;101623.02;103055;1314;60920;-82
2023/03/02 11:59:06;;;;;;;;;;;;;;;18.53;30.67;101620.55;103886;1314;59327;-83
2023/03/02 12:01:33;;;;;;;;;;;;;;;18.40;30.55;101619.55;103703;1308;73889;-83
2023/03/02 12:04:06;;;;;;;;;;;;;;;18.19;30.51;101622.14;103434;1308;60295;-82
2023/03/02 12:06:35;;;;;;;;;;;;;;;18.04;30.73;101624.40;103342;1311;60202;-83
2023/03/02 12:09:25;;;;;;;;;;;;;;;18.03;30.76;101627.64;103564;1308;72763;-83
2023/03/02 12:11:55;;;;;;;;;;;;;;;18.12;30.75;101627.77;103734;1308;73701;-84
2023/03/02 12:14:24;;;;;;;;;;;;;;;18.21;30.84;101616.51;103604;1308;60187;-83
2023/03/02 12:16:50;;;;;;;;;;;;;;;18.29;30.81;101618.13;103697;1309;60540;-83
2023/03/02 12:19:28;;;;;;;;;;;;;;;18.32;30.72;101620.29;103690;1308;72248;-84
2023/03/02 12:21:58;;;;;;;;;;;;;;;18.21;30.78;101616.86;103565;1308;74657;-84
2023/03/02 12:24:28;;;;;;;;;;;;;;;18.27;30.93;101616.42;103681;1308;60414;-82
2023/03/02 12:27:03;;;;;;;;;;;;;;;18.37;30.92;101611.68;103931;1308;60278;-83
2023/03/02 12:29:41;;;;;;;;;;;;;;;18.44;30.98;101609.77;103658;1309;73395;-82
2023/03/02 12:32:11;;;;;;;;;;;;;;;18.53;31.01;101611.98;103693;1308;73658;-82
2023/03/02 12:34:37;;;;;;;;;;;;;;;18.64;31.12;101612.20;103572;1308;60742;-82
2023/03/02 12:37:25;;;;;;;;;;;;;;;18.73;31.30;101609.44;103567;1309;59285;-82
2023/03/02 12:40:00;;;;;;;;;;;;;;;18.82;31.23;101604.90;103403;1309;71751;-81
2023/03/02 12:42:40;;;;;;;;;;;;;;;18.91;31.22;101606.11;103756;1308;73912;-83
2023/03/02 12:45:12;;;;;;;;;;;;;;;19.01;31.20;101602.95;103839;1309;60039;-83
2023/03/02 12:47:43;;;;;;;;;;;;;;;19.12;31.25;101604.71;103775;1308;60422;-82
2023/03/02 12:50:16;;;;;;;;;;;;;;;19.19;31.32;101603.46;103959;1309;71622;-84
2023/03/02 12:52:42;;;;;;;;;;;;;;;19.21;31.04;101606.59;103612;1311;73838;-83
2023/03/02 12:55:08;;;;;;;;;;;;;;;19.02;30.95;101604.49;103780;1308;59204;-83
2023/03/02 12:57:36;;;;;;;;;;;;;;;18.88;30.91;101605.15;103758;1308;60555;-84
2023/03/02 13:00:01;;;;;;;;;;;;;;;18.87;31.06;101602.16;103853;1308;73585;-82
2023/03/02 13:02:28;;;;;;;;;;;;;;;18.90;31.09;101596.13;103963;1308;60523;-81
2023/03/02 13:04:54;;;;;;;;;;;;;;;18.96;31.01;101599.41;103762;1308;60587;-82
2023/03/02 13:07:24;;;;;;;;;;;;;;;18.98;30.97;101602.55;104328;1308;58321;-83
2023/03/02 13:09:50;;;;;;;;;;;;;;;18.73;30.65;101597.29;104421;1308;74449;-82
2023/03/02 13:12:15;;;;;;;;;;;;;;;18.72;30.87;101594.85;104359;1308;58812;-83
2023/03/02 13:14:42;;;;;;;;;;;;;;;18.77;31.01;101593.56;103752;1308;61487;-82
2023/03/02 13:17:15;;;;;;;;;;;;;;;18.79;31.02;101590.96;103634;1309;61190;-84
2023/03/02 13:19:41;;;;;;;;;;;;;;;18.81;30.75;101589.62;103667;1309;72470;-82
2023/03/02 13:22:10;;;;;;;;;;;;;;;18.81;30.80;101586.02;103653;1308;73683;-81
2023/03/02 13:24:49;;;;;;;;;;;;;;;18.85;30.77;101587.29;103569;1308;61257;-83
2023/03/02 13:27:16;;;;;;;;;;;;;;;18.89;30.70;101584.78;103609;1308;60419;-83
2023/03/02 13:29:42;;;;;;;;;;;;;;;18.92;30.64;101584.27;103561;1311;73564;-83
2023/03/02 13:32:21;;;;;;;;;;;;;;;18.95;30.62;101577.02;103733;1309;60954;-84
2023/03/02 13:34:51;;;;;;;;;;;;;;;18.75;30.40;101575.65;103591;1308;60868;-83
2023/03/02 13:37:31;;;;;;;;;;;;;;;18.41;30.28;101576.74;103528;1310;60526;-83
2023/03/02 13:39:58;;;;;;;;;;;;;;;18.24;30.29;101572.88;103742;1308;73779;-83
2023/03/02 13:42:28;;;;;;;;;;;;;;;18.21;30.47;101567.52;103480;1311;61295;-82
2023/03/02 13:44:53;;;;;;;;;;;;;;;18.16;30.36;101564.02;103548;1308;61072;-84
2023/03/02 13:47:25;;;;;;;;;;;;;;;18.16;30.51;101558.86;103776;1308;60461;-83
2023/03/02 13:49:51;;;;;;;;;;;;;;;18.24;30.54;101552.40;103759;1308;72637;-83
2023/03/02 13:52:22;;;;;;;;;;;;;;;18.36;30.60;101553.24;103579;1308;60504;-83
2023/03/02 13:54:51;;;;;;;;;;;;;;;18.51;30.53;101549.36;103589;1308;60430;-83
2023/03/02 13:57:18;;;;;;;;;;;;;;;18.65;30.40;101544.77;103833;1308;61323;-83
2023/03/02 13:59:43;;;;;;;;;;;;;;;18.77;30.48;101543.80;103527;1313;73708;-82
2023/03/02 14:02:21;;;;;;;;;;;;;;;18.89;30.51;101544.13;103734;1308;61014;-82
2023/03/02 14:04:47;;;;;;;;;;;;;;;19.00;30.53;101545.21;103664;1308;60968;-83
2023/03/02 14:07:13;;;;;;;;;;;;;;;19.10;30.44;101541.82;103489;1308;60497;-82
2023/03/02 14:09:39;;;;;;;;;;;;;;;19.19;30.48;101534.60;103493;1308;60508;-83
2023/03/02 14:12:04;;;;;;;;;;;;;;;19.27;30.57;101535.07;103729;1308;60653;-82
2023/03/02 14:14:30;;;;;;;;;;;;;;;19.34;30.46;101532.02;103651;1308;60537;-82
2023/03/02 14:16:56;;;;;;;;;;;;;;;19.41;30.64;101526.30;103592;1308;61041;-82
2023/03/02 14:19:24;;;;;;;;;;;;;;;19.49;30.66;101523.55;103598;1308;60439;-82
2023/03/02 14:21:50;;;;;;;;;;;;;;;19.56;30.83;101520.84;103661;1308;72646;-83
2023/03/02 14:24:18;;;;;;;;;;;;;;;19.61;31.00;101519.17;103815;1311;59381;-82
2023/03/02 14:26:46;;;;;;;;;;;;;;;19.64;30.83;101516.36;103603;1309;60556;-83
2023/03/02 14:29:36;;;;;;;;;;;;;;;19.66;30.83;101514.46;103642;1308;60489;-83
2023/03/02 14:32:05;;;;;;;;;;;;;;;19.69;30.82;101514.31;103030;1317;72511;-81
2023/03/02 14:34:40;;;;;;;;;;;;;;;19.68;30.86;101508.61;102964;1317;73719;-82
2023/03/02 14:37:10;;;;;;;;;;;;;;;19.66;30.80;101504.80;102962;1315;60520;-81
2023/03/02 14:39:36;;;;;;;;;;;;;;;19.66;30.84;101500.91;102916;1317;60467;-80
2023/03/02 14:42:02;;;;;;;;;;;;;;;19.64;30.69;101495.97;102929;1317;60526;-81
2023/03/02 14:44:28;;;;;;;;;;;;;;;19.64;30.77;101488.67;103081;1315;60414;-82
2023/03/02 14:46:55;;;;;;;;;;;;;;;19.65;30.91;101486.30;102852;1315;62791;-83
2023/03/02 14:49:21;;;;;;;;;;;;;;;19.68;30.89;101485.80;102989;1317;60588;-81
2023/03/02 14:52:13;;;;;;;;;;;;;;;19.70;31.00;101484.39;102851;1315;60422;-82
2023/03/02 14:54:41;;;;;;;;;;;;;;;19.74;30.98;101481.30;102923;1317;73920;-82
2023/03/02 14:57:12;;;;;;;;;;;;;;;19.80;31.07;101481.56;102962;1315;60396;-82
2023/03/02 14:59:38;;;;;;;;;;;;;;;19.84;31.09;101480.81;102912;1317;60362;-82
2023/03/02 15:02:08;;;;;;;;;;;;;;;19.90;31.15;101484.26;102847;1317;73741;-82
2023/03/02 15:04:57;;;;;;;;;;;;;;;19.94;31.14;101478.83;102896;1316;73705;-82
2023/03/02 15:07:23;;;;;;;;;;;;;;;19.99;31.24;101480.19;102514;1320;60611;-81
2023/03/02 15:09:49;;;;;;;;;;;;;;;20.02;31.19;101482.34;102842;1314;60999;-81
2023/03/02 15:12:14;;;;;;;;;;;;;;;20.03;31.26;101482.98;102844;1315;60644;-82
2023/03/02 15:14:43;;;;;;;;;;;;;;;20.04;31.33;101482.77;103029;1314;60607;-82
2023/03/02 15:17:09;;;;;;;;;;;;;;;20.05;31.32;101479.27;103073;1314;60815;-80
2023/03/02 15:19:34;;;;;;;;;;;;;;;20.07;31.35;101475.24;102932;1314;60625;-83
2023/03/02 15:22:00;;;;;;;;;;;;;;;20.09;31.31;101475.31;102901;1320;60762;-82
2023/03/02 15:24:25;;;;;;;;;;;;;;;20.09;31.47;101474.02;102819;1314;62315;-81
2023/03/02 15:26:51;;;;;;;;;;;;;;;20.11;31.44;101478.92;102871;1314;62311;-82
2023/03/02 15:29:17;;;;;;;;;;;;;;;20.13;31.39;101480.27;102898;1314;60658;-81
2023/03/02 15:31:43;;;;;;;;;;;;;;;20.14;31.42;101479.49;102865;1316;60428;-80
2023/03/02 15:34:35;;;;;;;;;;;;;;;20.16;31.43;101477.08;102893;1314;60495;-82
2023/03/02 15:37:01;;;;;;;;;;;;;;;20.17;31.34;101475.73;102614;1320;73757;-82
2023/03/02 15:39:26;;;;;;;;;;;;;;;20.18;31.32;101477.48;102567;1321;60681;-81
2023/03/02 15:42:01;;;;;;;;;;;;;;;20.20;31.29;101480.61;102555;1320;60808;-82
2023/03/02 15:44:28;;;;;;;;;;;;;;;20.21;31.33;101479.29;102250;1325;60598;-81
2023/03/02 15:46:54;;;;;;;;;;;;;;;20.22;31.28;101479.58;102471;1320;60419;-82
2023/03/02 15:49:23;;;;;;;;;;;;;;;20.23;31.17;101480.59;102495;1320;60556;-83
2023/03/02 15:51:50;;;;;;;;;;;;;;;20.23;31.28;101479.49;102577;1320;60645;-82
2023/03/02 15:54:16;;;;;;;;;;;;;;;20.24;31.23;101478.92;102477;1320;72472;-82
2023/03/02 15:56:50;;;;;;;;;;;;;;;20.25;31.23;101478.33;102543;1320;73851;-82
2023/03/02 15:59:16;;;;;;;;;;;;;;;20.26;31.23;101475.95;102486;1320;60489;-82
2023/03/02 16:01:42;;;;;;;;;;;;;;;20.28;31.29;101479.61;102506;1320;60517;-82
2023/03/02 16:04:08;;;;;;;;;;;;;;;20.30;31.34;101475.60;102623;1320;60655;-82
2023/03/02 16:06:33;;;;;;;;;;;;;;;20.31;31.30;101482.14;102487;1320;60541;-82
2023/03/02 16:09:00;;;;;;;;;;;;;;;20.32;31.30;101481.02;102610;1320;60375;-82
2023/03/02 16:11:25;;;;;;;;;;;;;;;20.33;31.17;101487.02;102626;1320;60603;-82
2023/03/02 16:13:51;;;;;;;;;;;;;;;20.34;31.32;101488.20;102807;1315;60557;-82
2023/03/02 16:16:17;;;;;;;;;;;;;;;20.35;31.38;101485.48;103404;1308;72507;-82
2023/03/02 16:18:43;;;;;;;;;;;;;;;20.36;31.46;101483.80;103608;1308;60483;-82
2023/03/02 16:21:12;;;;;;;;;;;;;;;20.36;31.61;101479.30;103752;1308;60463;-82
2023/03/02 16:23:38;;;;;;;;;;;;;;;20.37;31.47;101483.73;103620;1309;61122;-82
2023/03/02 16:26:07;;;;;;;;;;;;;;;20.37;31.52;101480.18;103484;1310;60571;-82
2023/03/02 16:28:33;;;;;;;;;;;;;;;20.38;31.52;101478.84;103613;1309;73680;-82
2023/03/02 16:31:03;;;;;;;;;;;;;;;20.39;31.55;101480.60;103410;1309;60482;-82
2023/03/02 16:33:29;;;;;;;;;;;;;;;20.39;31.61;101478.06;103623;1308;60399;-83
2023/03/02 16:35:54;;;;;;;;;;;;;;;20.39;31.74;101478.98;103575;1309;60712;-82
2023/03/02 16:38:20;;;;;;;;;;;;;;;20.39;31.86;101478.60;103556;1308;60551;-82
2023/03/02 16:40:46;;;;;;;;;;;;;;;20.39;31.76;101486.30;103559;1309;60548;-82
2023/03/02 16:43:12;;;;;;;;;;;;;;;20.39;31.84;101483.96;103763;1309;60526;-81
2023/03/02 16:45:50;;;;;;;;;;;;;;;;;;;;;
2023/03/02 16:48:16;;;;;;;;;;;;;;;20.40;31.85;101492.48;103627;1308;76187;-82
2023/03/02 16:50:42;;;;;;;;;;;;;;;20.42;31.96;101491.88;103674;1308;60542;-83
2023/03/02 16:53:15;;;;;;;;;;;;;;;20.43;32.00;101491.82;103868;1308;60932;-83
2023/03/02 16:55:40;;;;;;;;;;;;;;;20.43;32.15;101490.02;103880;1308;60459;-83
2023/03/02 16:58:06;;;;;;;;;;;;;;;20.43;32.09;101488.04;103873;1309;60459;-83
2023/03/02 17:00:31;;;;;;;;;;;;;;;20.43;32.16;101485.73;103640;1309;60651;-82
2023/03/02 17:02:57;;;;;;;;;;;;;;;20.39;32.06;101485.77;103653;1308;60533;-83
2023/03/02 17:05:23;;;;;;;;;;;;;;;20.38;32.19;101491.02;103652;1308;60526;-83
2023/03/02 17:07:52;;;;;;;;;;;;;;;20.38;32.21;101484.61;103646;1308;60445;-83
2023/03/02 17:10:18;;;;;;;;;;;;;;;20.38;32.29;101486.73;103638;1308;73600;-82
2023/03/02 17:12:44;;;;;;;;;;;;;;;20.38;32.29;101490.30;103642;1308;60315;-82
2023/03/02 17:15:13;;;;;;;;;;;;;;;20.38;32.40;101490.83;103860;1308;60609;-83
2023/03/02 17:17:39;;;;;;;;;;;;;;;20.38;32.31;101494.94;103621;1308;61324;-84
2023/03/02 17:20:07;;;;;;;;;;;;;;;20.39;32.39;101492.59;103640;1313;60496;-81
2023/03/02 17:22:33;;;;;;;;;;;;;;;20.39;32.45;101491.33;103643;1314;75082;-82
2023/03/02 17:25:00;;;;;;;;;;;;;;;20.39;32.58;101493.98;103651;1308;60380;-83
2023/03/02 17:27:26;;;;;;;;;;;;;;;20.39;32.51;101493.81;103352;1311;60583;-83
2023/03/02 17:29:58;;;;;;;;;;;;;;;20.40;32.58;101495.38;103359;1312;72358;-83
2023/03/02 17:32:26;;;;;;;;;;;;;;;20.40;32.58;101485.51;103263;1313;73641;-84
2023/03/02 17:34:52;;;;;;;;;;;;;;;20.40;32.60;101489.28;103405;1313;60647;-83
2023/03/02 17:37:17;;;;;;;;;;;;;;;20.40;32.69;101487.12;103243;1315;60642;-83
2023/03/02 17:39:43;;;;;;;;;;;;;;;20.41;32.77;101486.90;103246;1314;60528;-82
2023/03/02 17:42:09;;;;;;;;;;;;;;;20.41;32.76;101484.04;103440;1311;60642;-82
2023/03/02 17:44:37;;;;;;;;;;;;;;;20.40;32.82;101482.82;103401;1311;60661;-82
2023/03/02 17:47:05;;;;;;;;;;;;;;;20.41;32.79;101480.45;103319;1311;60606;-81
2023/03/02 17:49:30;;;;;;;;;;;;;;;20.42;32.87;101478.13;103348;1314;60558;-82
2023/03/02 17:51:56;;;;;;;;;;;;;;;20.42;32.93;101479.17;103321;1311;60469;-83
2023/03/02 17:54:22;;;;;;;;;;;;;;;20.42;32.94;101479.54;103392;1311;60979;-82
2023/03/02 17:56:47;;;;;;;;;;;;;;;20.42;33.00;101479.17;103250;1311;61904;-82
2023/03/02 17:59:15;;;;;;;;;;;;;;;20.42;32.96;101477.71;103521;1308;60545;-82
2023/03/02 18:01:42;;;;;;;;;;;;;;;20.42;32.97;101475.20;103640;1308;72140;-83
2023/03/02 18:04:14;;;;;;;;;;;;;;;20.43;33.15;101480.71;103627;1308;73665;-84
2023/03/02 18:06:40;;;;;;;;;;;;;;;20.43;33.14;101480.68;103692;1309;60363;-83
2023/03/02 18:09:05;;;;;;;;;;;;;;;20.44;33.19;101477.10;103659;1308;60619;-83
2023/03/02 18:11:32;;;;;;;;;;;;;;;20.43;33.19;101479.79;103641;1311;60540;-83
2023/03/02 18:13:58;;;;;;;;;;;;;;;20.44;33.34;101479.21;103745;1314;60354;-83
2023/03/02 18:16:24;;;;;;;;;;;;;;;20.44;33.17;101476.72;103647;1308;59376;-82
2023/03/02 18:18:50;;;;;;;;;;;;;;;20.45;33.21;101478.48;103650;1308;60532;-82
2023/03/02 18:21:16;;;;;;;;;;;;;;;20.45;33.38;101479.39;103679;1308;60690;-83
2023/03/02 18:23:43;;;;;;;;;;;;;;;20.45;33.30;101481.17;103616;1308;60443;-83
2023/03/02 18:26:10;;;;;;;;;;;;;;;20.45;33.35;101480.98;103700;1308;60478;-83
2023/03/02 18:28:35;;;;;;;;;;;;;;;20.45;33.41;101486.15;103723;1308;60514;-83
2023/03/02 18:31:01;;;;;;;;;;;;;;;20.45;33.47;101484.16;103933;1308;60970;-83
2023/03/02 18:33:35;;;;;;;;;;;;;;;20.45;33.52;101482.76;103622;1308;72449;-83
2023/03/02 18:36:04;;;;;;;;;;;;;;;20.45;33.39;101480.23;103675;1309;74733;-83
2023/03/02 18:38:31;;;;;;;;;;;;;;;20.46;33.52;101477.36;103872;1309;60516;-82